sensor_id;sensor_type;location;lat;lon;timestamp;P1;durP1;ratioP1;P2;durP2;ratioP2
15198;SDS011;7700;48.654;9.070;2023-11-18T00:02:17;14.40;;;13.60;;
15198;SDS011;7700;48.654;9.070;2023-11-18T00:04:43;16.63;;;15.83;;
15198;SDS011;7700;48.654;9.070;2023-11-18T00:07:09;18.53;;;17.53;;
15198;SDS011;7700;48.654;9.070;2023-11-18T00:09:35;13.13;;;12.33;;
15198;SDS011;7700;48.654;9.070;2023-11-18T00:12:01;15.40;;;14.60;;
15198;SDS011;7700;48.654;9.070;2023-11-18T00:14:29;15.63;;;14.80;;
15198;SDS011;7700;48.654;9.070;2023-11-18T00:16:54;14.57;;;13.77;;
15198;SDS011;7700;48.654;9.070;2023-11-18T00:19:20;14.37;;;13.57;;
15198;SDS011;7700;48.654;9.070;2023-11-18T00:21:46;12.50;;;11.73;;
15198;SDS011;7700;48.654;9.070;2023-11-18T00:24:13;13.43;;;12.73;;
15198;SDS011;7700;48.654;9.070;2023-11-18T00:26:39;13.17;;;12.53;;
15198;SDS011;7700;48.654;9.070;2023-11-18T00:29:05;11.83;;;11.13;;
15198;SDS011;7700;48.654;9.070;2023-11-18T00:31:31;10.50;;;9.93;;
15198;SDS011;7700;48.654;9.070;2023-11-18T00:33:57;11.30;;;10.70;;
15198;SDS011;7700;48.654;9.070;2023-11-18T00:36:23;13.33;;;12.63;;
15198;SDS011;7700;48.654;9.070;2023-11-18T00:38:49;13.87;;;13.17;;
15198;SDS011;7700;48.654;9.070;2023-11-18T00:41:15;11.43;;;10.83;;
15198;SDS011;7700;48.654;9.070;2023-11-18T00:43:42;9.83;;;9.20;;
15198;SDS011;7700;48.654;9.070;2023-11-18T00:46:08;9.10;;;8.60;;
15198;SDS011;7700;48.654;9.070;2023-11-18T00:48:34;11.20;;;10.60;;
15198;SDS011;7700;48.654;9.070;2023-11-18T00:51:00;12.30;;;11.70;;
15198;SDS011;7700;48.654;9.070;2023-11-18T00:53:26;11.53;;;10.83;;
15198;SDS011;7700;48.654;9.070;2023-11-18T00:55:52;9.17;;;8.60;;
15198;SDS011;7700;48.654;9.070;2023-11-18T00:58:18;11.23;;;10.63;;
15198;SDS011;7700;48.654;9.070;2023-11-18T01:00:45;11.87;;;11.27;;
15198;SDS011;7700;48.654;9.070;2023-11-18T01:03:11;9.20;;;8.70;;
15198;SDS011;7700;48.654;9.070;2023-11-18T01:05:37;9.60;;;9.10;;
15198;SDS011;7700;48.654;9.070;2023-11-18T01:08:04;8.93;;;8.27;;
15198;SDS011;7700;48.654;9.070;2023-11-18T01:10:30;11.17;;;10.67;;
15198;SDS011;7700;48.654;9.070;2023-11-18T01:12:56;8.17;;;7.67;;
15198;SDS011;7700;48.654;9.070;2023-11-18T01:15:23;11.83;;;11.20;;
15198;SDS011;7700;48.654;9.070;2023-11-18T01:17:49;10.03;;;9.53;;
15198;SDS011;7700;48.654;9.070;2023-11-18T01:20:15;8.33;;;7.87;;
15198;SDS011;7700;48.654;9.070;2023-11-18T01:22:46;7.80;;;7.37;;
15198;SDS011;7700;48.654;9.070;2023-11-18T01:25:13;8.73;;;8.30;;
15198;SDS011;7700;48.654;9.070;2023-11-18T01:27:42;10.30;;;9.70;;
15198;SDS011;7700;48.654;9.070;2023-11-18T01:30:10;10.03;;;9.53;;
15198;SDS011;7700;48.654;9.070;2023-11-18T01:32:36;10.07;;;9.50;;
15198;SDS011;7700;48.654;9.070;2023-11-18T01:35:05;9.57;;;9.10;;
15198;SDS011;7700;48.654;9.070;2023-11-18T01:37:33;9.70;;;9.20;;
15198;SDS011;7700;48.654;9.070;2023-11-18T01:39:59;9.97;;;9.53;;
15198;SDS011;7700;48.654;9.070;2023-11-18T01:42:29;9.43;;;8.93;;
15198;SDS011;7700;48.654;9.070;2023-11-18T01:44:56;8.10;;;7.70;;
15198;SDS011;7700;48.654;9.070;2023-11-18T01:47:24;9.27;;;8.80;;
15198;SDS011;7700;48.654;9.070;2023-11-18T01:49:50;11.43;;;10.90;;
15198;SDS011;7700;48.654;9.070;2023-11-18T01:52:16;11.97;;;11.13;;
15198;SDS011;7700;48.654;9.070;2023-11-18T01:54:42;7.27;;;6.80;;
15198;SDS011;7700;48.654;9.070;2023-11-18T01:57:09;9.17;;;8.63;;
15198;SDS011;7700;48.654;9.070;2023-11-18T01:59:35;9.50;;;9.00;;
15198;SDS011;7700;48.654;9.070;2023-11-18T02:02:03;10.50;;;10.07;;
15198;SDS011;7700;48.654;9.070;2023-11-18T02:04:29;8.30;;;7.83;;
15198;SDS011;7700;48.654;9.070;2023-11-18T02:06:55;7.87;;;7.53;;
15198;SDS011;7700;48.654;9.070;2023-11-18T02:09:21;8.67;;;8.17;;
15198;SDS011;7700;48.654;9.070;2023-11-18T02:14:30;8.27;;;7.83;;
15198;SDS011;7700;48.654;9.070;2023-11-18T02:16:59;9.33;;;8.93;;
15198;SDS011;7700;48.654;9.070;2023-11-18T02:19:25;8.73;;;8.33;;
15198;SDS011;7700;48.654;9.070;2023-11-18T02:21:52;7.10;;;6.80;;
15198;SDS011;7700;48.654;9.070;2023-11-18T02:24:27;8.50;;;8.03;;
15198;SDS011;7700;48.654;9.070;2023-11-18T02:26:56;10.53;;;10.03;;
15198;SDS011;7700;48.654;9.070;2023-11-18T02:29:24;8.03;;;7.63;;
15198;SDS011;7700;48.654;9.070;2023-11-18T02:31:52;9.73;;;9.27;;
15198;SDS011;7700;48.654;9.070;2023-11-18T02:34:19;8.20;;;7.80;;
15198;SDS011;7700;48.654;9.070;2023-11-18T02:36:48;8.07;;;7.67;;
15198;SDS011;7700;48.654;9.070;2023-11-18T02:39:21;10.50;;;10.00;;
15198;SDS011;7700;48.654;9.070;2023-11-18T02:41:48;9.57;;;8.83;;
15198;SDS011;7700;48.654;9.070;2023-11-18T02:44:17;10.90;;;10.30;;
15198;SDS011;7700;48.654;9.070;2023-11-18T02:46:45;8.93;;;8.53;;
15198;SDS011;7700;48.654;9.070;2023-11-18T02:49:11;7.83;;;7.43;;
15198;SDS011;7700;48.654;9.070;2023-11-18T02:51:37;9.87;;;9.47;;
15198;SDS011;7700;48.654;9.070;2023-11-18T02:54:07;8.90;;;8.50;;
15198;SDS011;7700;48.654;9.070;2023-11-18T02:56:36;8.10;;;7.70;;
15198;SDS011;7700;48.654;9.070;2023-11-18T02:59:02;10.90;;;10.33;;
15198;SDS011;7700;48.654;9.070;2023-11-18T03:01:34;12.43;;;11.90;;
15198;SDS011;7700;48.654;9.070;2023-11-18T03:04:00;11.93;;;11.37;;
15198;SDS011;7700;48.654;9.070;2023-11-18T03:06:26;11.13;;;10.53;;
15198;SDS011;7700;48.654;9.070;2023-11-18T03:08:52;12.80;;;12.20;;
15198;SDS011;7700;48.654;9.070;2023-11-18T03:11:19;11.30;;;10.73;;
15198;SDS011;7700;48.654;9.070;2023-11-18T03:13:45;12.90;;;12.20;;
15198;SDS011;7700;48.654;9.070;2023-11-18T03:16:11;12.33;;;11.73;;
15198;SDS011;7700;48.654;9.070;2023-11-18T03:18:41;12.43;;;11.83;;
15198;SDS011;7700;48.654;9.070;2023-11-18T03:21:11;13.13;;;12.53;;
15198;SDS011;7700;48.654;9.070;2023-11-18T03:23:37;12.40;;;11.70;;
15198;SDS011;7700;48.654;9.070;2023-11-18T03:26:03;10.00;;;9.50;;
15198;SDS011;7700;48.654;9.070;2023-11-18T03:28:30;10.60;;;10.10;;
15198;SDS011;7700;48.654;9.070;2023-11-18T03:30:56;10.57;;;10.00;;
15198;SDS011;7700;48.654;9.070;2023-11-18T03:33:22;9.47;;;9.00;;
15198;SDS011;7700;48.654;9.070;2023-11-18T03:35:48;9.47;;;9.00;;
15198;SDS011;7700;48.654;9.070;2023-11-18T03:38:14;8.90;;;8.43;;
15198;SDS011;7700;48.654;9.070;2023-11-18T03:40:42;9.23;;;8.70;;
15198;SDS011;7700;48.654;9.070;2023-11-18T03:43:10;9.80;;;9.37;;
15198;SDS011;7700;48.654;9.070;2023-11-18T03:45:38;9.23;;;8.77;;
15198;SDS011;7700;48.654;9.070;2023-11-18T03:48:04;10.03;;;9.53;;
15198;SDS011;7700;48.654;9.070;2023-11-18T03:50:31;8.73;;;8.33;;
15198;SDS011;7700;48.654;9.070;2023-11-18T03:52:57;10.87;;;10.33;;
15198;SDS011;7700;48.654;9.070;2023-11-18T03:55:23;7.27;;;6.87;;
15198;SDS011;7700;48.654;9.070;2023-11-18T03:57:50;9.27;;;8.67;;
15198;SDS011;7700;48.654;9.070;2023-11-18T04:00:17;7.03;;;6.60;;
15198;SDS011;7700;48.654;9.070;2023-11-18T04:02:43;10.20;;;9.60;;
15198;SDS011;7700;48.654;9.070;2023-11-18T04:05:11;8.43;;;7.83;;
15198;SDS011;7700;48.654;9.070;2023-11-18T04:07:37;9.27;;;8.67;;
15198;SDS011;7700;48.654;9.070;2023-11-18T04:10:06;6.50;;;5.97;;
15198;SDS011;7700;48.654;9.070;2023-11-18T04:12:35;6.70;;;6.30;;
15198;SDS011;7700;48.654;9.070;2023-11-18T04:15:01;7.53;;;7.07;;
15198;SDS011;7700;48.654;9.070;2023-11-18T04:17:29;8.50;;;7.90;;
15198;SDS011;7700;48.654;9.070;2023-11-18T04:19:55;6.93;;;6.40;;
15198;SDS011;7700;48.654;9.070;2023-11-18T04:22:21;7.33;;;6.83;;
15198;SDS011;7700;48.654;9.070;2023-11-18T04:24:48;6.33;;;5.93;;
15198;SDS011;7700;48.654;9.070;2023-11-18T04:27:14;6.13;;;5.63;;
15198;SDS011;7700;48.654;9.070;2023-11-18T04:29:40;6.67;;;6.17;;
15198;SDS011;7700;48.654;9.070;2023-11-18T04:32:06;7.77;;;7.07;;
15198;SDS011;7700;48.654;9.070;2023-11-18T04:34:35;8.00;;;7.50;;
15198;SDS011;7700;48.654;9.070;2023-11-18T04:37:02;8.20;;;7.60;;
15198;SDS011;7700;48.654;9.070;2023-11-18T04:39:28;7.53;;;7.03;;
15198;SDS011;7700;48.654;9.070;2023-11-18T04:41:55;8.60;;;8.07;;
15198;SDS011;7700;48.654;9.070;2023-11-18T04:44:21;7.90;;;7.37;;
15198;SDS011;7700;48.654;9.070;2023-11-18T04:46:47;9.20;;;8.57;;
15198;SDS011;7700;48.654;9.070;2023-11-18T04:49:13;8.67;;;8.17;;
15198;SDS011;7700;48.654;9.070;2023-11-18T04:51:39;9.53;;;9.03;;
15198;SDS011;7700;48.654;9.070;2023-11-18T04:54:05;9.97;;;9.37;;
15198;SDS011;7700;48.654;9.070;2023-11-18T04:56:33;9.80;;;9.23;;
15198;SDS011;7700;48.654;9.070;2023-11-18T04:59:00;11.17;;;10.57;;
15198;SDS011;7700;48.654;9.070;2023-11-18T05:01:26;10.57;;;9.97;;
15198;SDS011;7700;48.654;9.070;2023-11-18T05:03:52;10.63;;;10.03;;
15198;SDS011;7700;48.654;9.070;2023-11-18T05:06:18;10.20;;;9.50;;
15198;SDS011;7700;48.654;9.070;2023-11-18T05:08:45;9.40;;;8.70;;
15198;SDS011;7700;48.654;9.070;2023-11-18T05:11:11;9.77;;;9.07;;
15198;SDS011;7700;48.654;9.070;2023-11-18T05:13:38;10.47;;;9.77;;
15198;SDS011;7700;48.654;9.070;2023-11-18T05:16:05;11.73;;;11.00;;
15198;SDS011;7700;48.654;9.070;2023-11-18T05:18:31;10.63;;;10.07;;
15198;SDS011;7700;48.654;9.070;2023-11-18T05:21:02;11.93;;;11.33;;
15198;SDS011;7700;48.654;9.070;2023-11-18T05:23:30;12.23;;;11.60;;
15198;SDS011;7700;48.654;9.070;2023-11-18T05:25:56;11.67;;;11.07;;
15198;SDS011;7700;48.654;9.070;2023-11-18T05:28:23;10.83;;;10.27;;
15198;SDS011;7700;48.654;9.070;2023-11-18T05:30:49;8.87;;;8.40;;
15198;SDS011;7700;48.654;9.070;2023-11-18T05:33:16;9.57;;;9.03;;
15198;SDS011;7700;48.654;9.070;2023-11-18T05:35:44;10.60;;;10.00;;
15198;SDS011;7700;48.654;9.070;2023-11-18T05:38:16;9.17;;;8.57;;
15198;SDS011;7700;48.654;9.070;2023-11-18T05:40:45;10.73;;;10.23;;
15198;SDS011;7700;48.654;9.070;2023-11-18T05:43:21;8.00;;;7.50;;
15198;SDS011;7700;48.654;9.070;2023-11-18T05:45:47;9.83;;;9.33;;
15198;SDS011;7700;48.654;9.070;2023-11-18T05:48:31;10.73;;;10.07;;
15198;SDS011;7700;48.654;9.070;2023-11-18T05:50:58;11.77;;;11.07;;
15198;SDS011;7700;48.654;9.070;2023-11-18T05:53:24;9.80;;;9.20;;
15198;SDS011;7700;48.654;9.070;2023-11-18T05:55:50;10.17;;;9.47;;
15198;SDS011;7700;48.654;9.070;2023-11-18T05:58:16;10.57;;;9.97;;
15198;SDS011;7700;48.654;9.070;2023-11-18T06:00:42;12.17;;;11.57;;
15198;SDS011;7700;48.654;9.070;2023-11-18T06:03:07;10.57;;;9.97;;
15198;SDS011;7700;48.654;9.070;2023-11-18T06:05:34;10.40;;;9.60;;
15198;SDS011;7700;48.654;9.070;2023-11-18T06:08:00;12.83;;;11.93;;
15198;SDS011;7700;48.654;9.070;2023-11-18T06:10:26;12.30;;;11.13;;
15198;SDS011;7700;48.654;9.070;2023-11-18T06:12:53;13.50;;;12.53;;
15198;SDS011;7700;48.654;9.070;2023-11-18T06:15:20;13.20;;;12.23;;
15198;SDS011;7700;48.654;9.070;2023-11-18T06:17:47;11.47;;;10.77;;
15198;SDS011;7700;48.654;9.070;2023-11-18T06:20:13;12.13;;;11.33;;
15198;SDS011;7700;48.654;9.070;2023-11-18T06:22:42;12.53;;;11.67;;
15198;SDS011;7700;48.654;9.070;2023-11-18T06:25:08;14.30;;;13.30;;
15198;SDS011;7700;48.654;9.070;2023-11-18T06:27:34;14.83;;;13.90;;
15198;SDS011;7700;48.654;9.070;2023-11-18T06:30:00;20.07;;;18.63;;
15198;SDS011;7700;48.654;9.070;2023-11-18T06:32:26;17.13;;;15.93;;
15198;SDS011;7700;48.654;9.070;2023-11-18T06:34:52;15.57;;;14.57;;
15198;SDS011;7700;48.654;9.070;2023-11-18T06:37:18;19.17;;;17.90;;
15198;SDS011;7700;48.654;9.070;2023-11-18T06:39:44;18.73;;;17.27;;
15198;SDS011;7700;48.654;9.070;2023-11-18T06:42:12;19.90;;;18.43;;
15198;SDS011;7700;48.654;9.070;2023-11-18T06:44:39;18.93;;;17.67;;
15198;SDS011;7700;48.654;9.070;2023-11-18T06:47:04;15.40;;;14.40;;
15198;SDS011;7700;48.654;9.070;2023-11-18T06:49:33;15.97;;;14.77;;
15198;SDS011;7700;48.654;9.070;2023-11-18T06:52:00;15.83;;;14.77;;
15198;SDS011;7700;48.654;9.070;2023-11-18T06:54:30;16.93;;;15.73;;
15198;SDS011;7700;48.654;9.070;2023-11-18T06:56:58;16.53;;;15.33;;
15198;SDS011;7700;48.654;9.070;2023-11-18T06:59:24;14.37;;;13.27;;
15198;SDS011;7700;48.654;9.070;2023-11-18T07:01:50;16.53;;;15.10;;
15198;SDS011;7700;48.654;9.070;2023-11-18T07:04:16;16.37;;;15.33;;
15198;SDS011;7700;48.654;9.070;2023-11-18T07:06:41;14.57;;;13.57;;
15198;SDS011;7700;48.654;9.070;2023-11-18T07:09:08;14.47;;;13.57;;
15198;SDS011;7700;48.654;9.070;2023-11-18T07:11:41;13.57;;;12.53;;
15198;SDS011;7700;48.654;9.070;2023-11-18T07:14:10;16.37;;;15.33;;
15198;SDS011;7700;48.654;9.070;2023-11-18T07:16:40;23.73;;;22.17;;
15198;SDS011;7700;48.654;9.070;2023-11-18T07:19:06;22.73;;;21.00;;
15198;SDS011;7700;48.654;9.070;2023-11-18T07:21:35;33.93;;;30.93;;
15198;SDS011;7700;48.654;9.070;2023-11-18T07:24:00;28.73;;;26.33;;
15198;SDS011;7700;48.654;9.070;2023-11-18T07:26:29;30.27;;;27.87;;
15198;SDS011;7700;48.654;9.070;2023-11-18T07:28:55;26.57;;;24.27;;
15198;SDS011;7700;48.654;9.070;2023-11-18T07:31:21;24.67;;;22.57;;
15198;SDS011;7700;48.654;9.070;2023-11-18T07:33:47;25.40;;;23.40;;
15198;SDS011;7700;48.654;9.070;2023-11-18T07:36:17;24.87;;;22.87;;
15198;SDS011;7700;48.654;9.070;2023-11-18T07:38:46;26.47;;;24.17;;
15198;SDS011;7700;48.654;9.070;2023-11-18T07:41:12;23.83;;;21.70;;
15198;SDS011;7700;48.654;9.070;2023-11-18T07:43:52;23.83;;;21.93;;
15198;SDS011;7700;48.654;9.070;2023-11-18T07:46:19;26.47;;;24.03;;
15198;SDS011;7700;48.654;9.070;2023-11-18T07:48:49;26.47;;;24.27;;
15198;SDS011;7700;48.654;9.070;2023-11-18T07:51:16;27.57;;;25.17;;
15198;SDS011;7700;48.654;9.070;2023-11-18T07:53:42;26.63;;;24.27;;
15198;SDS011;7700;48.654;9.070;2023-11-18T07:56:08;26.60;;;24.10;;
15198;SDS011;7700;48.654;9.070;2023-11-18T07:58:37;27.37;;;24.77;;
15198;SDS011;7700;48.654;9.070;2023-11-18T08:01:03;28.90;;;26.40;;
15198;SDS011;7700;48.654;9.070;2023-11-18T08:03:32;28.70;;;26.20;;
15198;SDS011;7700;48.654;9.070;2023-11-18T08:05:58;29.73;;;27.43;;
15198;SDS011;7700;48.654;9.070;2023-11-18T08:08:24;28.30;;;26.00;;
15198;SDS011;7700;48.654;9.070;2023-11-18T08:10:50;26.87;;;24.60;;
15198;SDS011;7700;48.654;9.070;2023-11-18T08:13:16;30.60;;;28.27;;
15198;SDS011;7700;48.654;9.070;2023-11-18T08:15:43;31.77;;;28.97;;
15198;SDS011;7700;48.654;9.070;2023-11-18T08:18:10;30.63;;;27.90;;
15198;SDS011;7700;48.654;9.070;2023-11-18T08:20:36;28.27;;;26.07;;
15198;SDS011;7700;48.654;9.070;2023-11-18T08:23:03;29.33;;;26.80;;
15198;SDS011;7700;48.654;9.070;2023-11-18T08:25:31;26.77;;;24.63;;
15198;SDS011;7700;48.654;9.070;2023-11-18T08:27:59;29.93;;;27.53;;
15198;SDS011;7700;48.654;9.070;2023-11-18T08:30:25;34.20;;;31.50;;
15198;SDS011;7700;48.654;9.070;2023-11-18T08:32:51;27.93;;;25.63;;
15198;SDS011;7700;48.654;9.070;2023-11-18T08:35:17;30.80;;;28.30;;
15198;SDS011;7700;48.654;9.070;2023-11-18T08:37:44;26.20;;;24.00;;
15198;SDS011;7700;48.654;9.070;2023-11-18T08:40:13;26.93;;;24.83;;
15198;SDS011;7700;48.654;9.070;2023-11-18T08:42:47;28.03;;;25.60;;
15198;SDS011;7700;48.654;9.070;2023-11-18T08:45:17;25.03;;;22.93;;
15198;SDS011;7700;48.654;9.070;2023-11-18T08:47:44;21.97;;;19.97;;
15198;SDS011;7700;48.654;9.070;2023-11-18T08:50:12;25.37;;;23.37;;
15198;SDS011;7700;48.654;9.070;2023-11-18T08:52:38;24.57;;;22.47;;
15198;SDS011;7700;48.654;9.070;2023-11-18T08:55:09;28.07;;;25.87;;
15198;SDS011;7700;48.654;9.070;2023-11-18T08:57:42;24.07;;;21.97;;
15198;SDS011;7700;48.654;9.070;2023-11-18T09:00:23;26.77;;;24.63;;
15198;SDS011;7700;48.654;9.070;2023-11-18T09:03:08;25.87;;;23.97;;
15198;SDS011;7700;48.654;9.070;2023-11-18T09:05:42;22.27;;;20.33;;
15198;SDS011;7700;48.654;9.070;2023-11-18T09:08:08;25.53;;;23.53;;
15198;SDS011;7700;48.654;9.070;2023-11-18T09:10:37;26.63;;;24.67;;
15198;SDS011;7700;48.654;9.070;2023-11-18T09:13:03;19.93;;;17.93;;
15198;SDS011;7700;48.654;9.070;2023-11-18T09:15:30;22.37;;;20.37;;
15198;SDS011;7700;48.654;9.070;2023-11-18T09:17:56;24.37;;;22.37;;
15198;SDS011;7700;48.654;9.070;2023-11-18T09:20:22;22.83;;;20.83;;
15198;SDS011;7700;48.654;9.070;2023-11-18T09:22:48;23.63;;;21.93;;
15198;SDS011;7700;48.654;9.070;2023-11-18T09:25:15;23.00;;;21.10;;
15198;SDS011;7700;48.654;9.070;2023-11-18T09:27:42;21.03;;;19.23;;
15198;SDS011;7700;48.654;9.070;2023-11-18T09:30:08;23.13;;;21.43;;
15198;SDS011;7700;48.654;9.070;2023-11-18T09:32:42;23.93;;;21.93;;
15198;SDS011;7700;48.654;9.070;2023-11-18T09:35:08;24.83;;;22.57;;
15198;SDS011;7700;48.654;9.070;2023-11-18T09:37:37;28.17;;;26.07;;
15198;SDS011;7700;48.654;9.070;2023-11-18T09:40:03;26.10;;;23.90;;
15198;SDS011;7700;48.654;9.070;2023-11-18T09:42:36;60.03;;;29.90;;
15198;SDS011;7700;48.654;9.070;2023-11-18T09:45:04;25.87;;;23.80;;
15198;SDS011;7700;48.654;9.070;2023-11-18T09:47:32;24.97;;;23.27;;
15198;SDS011;7700;48.654;9.070;2023-11-18T09:50:06;26.37;;;24.37;;
15198;SDS011;7700;48.654;9.070;2023-11-18T09:52:35;25.00;;;22.83;;
15198;SDS011;7700;48.654;9.070;2023-11-18T09:55:03;25.83;;;23.67;;
15198;SDS011;7700;48.654;9.070;2023-11-18T09:57:40;24.03;;;22.03;;
15198;SDS011;7700;48.654;9.070;2023-11-18T10:03:32;23.50;;;21.37;;
15198;SDS011;7700;48.654;9.070;2023-11-18T10:06:01;24.37;;;22.17;;
15198;SDS011;7700;48.654;9.070;2023-11-18T10:08:31;21.77;;;19.57;;
15198;SDS011;7700;48.654;9.070;2023-11-18T10:10:57;21.63;;;19.93;;
15198;SDS011;7700;48.654;9.070;2023-11-18T10:13:33;18.93;;;17.40;;
15198;SDS011;7700;48.654;9.070;2023-11-18T10:16:02;19.37;;;17.67;;
15198;SDS011;7700;48.654;9.070;2023-11-18T10:18:30;24.47;;;22.87;;
15198;SDS011;7700;48.654;9.070;2023-11-18T10:21:00;19.77;;;18.07;;
15198;SDS011;7700;48.654;9.070;2023-11-18T10:23:26;20.77;;;19.07;;
15198;SDS011;7700;48.654;9.070;2023-11-18T10:25:55;24.23;;;22.23;;
15198;SDS011;7700;48.654;9.070;2023-11-18T10:31:02;24.10;;;22.20;;
15198;SDS011;7700;48.654;9.070;2023-11-18T10:33:39;19.43;;;17.73;;
15198;SDS011;7700;48.654;9.070;2023-11-18T10:36:17;25.00;;;23.10;;
15198;SDS011;7700;48.654;9.070;2023-11-18T10:38:47;23.87;;;21.97;;
15198;SDS011;7700;48.654;9.070;2023-11-18T10:41:14;23.47;;;21.47;;
15198;SDS011;7700;48.654;9.070;2023-11-18T10:43:44;19.73;;;17.63;;
15198;SDS011;7700;48.654;9.070;2023-11-18T10:46:11;21.23;;;19.33;;
15198;SDS011;7700;48.654;9.070;2023-11-18T10:48:41;25.23;;;23.07;;
15198;SDS011;7700;48.654;9.070;2023-11-18T10:51:11;26.67;;;24.37;;
15198;SDS011;7700;48.654;9.070;2023-11-18T10:53:39;23.07;;;21.23;;
15198;SDS011;7700;48.654;9.070;2023-11-18T10:56:16;22.03;;;20.03;;
15198;SDS011;7700;48.654;9.070;2023-11-18T10:58:44;28.67;;;26.67;;
15198;SDS011;7700;48.654;9.070;2023-11-18T11:01:11;24.57;;;22.87;;
15198;SDS011;7700;48.654;9.070;2023-11-18T11:03:53;20.50;;;19.00;;
15198;SDS011;7700;48.654;9.070;2023-11-18T11:06:25;21.50;;;19.80;;
15198;SDS011;7700;48.654;9.070;2023-11-18T11:08:55;20.87;;;18.97;;
15198;SDS011;7700;48.654;9.070;2023-11-18T11:11:23;21.83;;;19.83;;
15198;SDS011;7700;48.654;9.070;2023-11-18T11:13:54;24.17;;;22.03;;
15198;SDS011;7700;48.654;9.070;2023-11-18T11:16:21;23.20;;;21.07;;
15198;SDS011;7700;48.654;9.070;2023-11-18T11:18:51;24.63;;;22.53;;
15198;SDS011;7700;48.654;9.070;2023-11-18T11:21:25;21.10;;;19.10;;
15198;SDS011;7700;48.654;9.070;2023-11-18T11:24:00;20.37;;;18.63;;
15198;SDS011;7700;48.654;9.070;2023-11-18T11:31:42;19.93;;;18.13;;
15198;SDS011;7700;48.654;9.070;2023-11-18T11:34:17;20.23;;;18.77;;
15198;SDS011;7700;48.654;9.070;2023-11-18T11:36:48;21.33;;;19.23;;
15198;SDS011;7700;48.654;9.070;2023-11-18T11:39:15;29.00;;;26.47;;
15198;SDS011;7700;48.654;9.070;2023-11-18T11:41:54;20.23;;;18.33;;
15198;SDS011;7700;48.654;9.070;2023-11-18T11:44:22;24.20;;;22.00;;
15198;SDS011;7700;48.654;9.070;2023-11-18T11:46:55;30.67;;;27.90;;
15198;SDS011;7700;48.654;9.070;2023-11-18T11:49:25;24.23;;;22.03;;
15198;SDS011;7700;48.654;9.070;2023-11-18T11:54:40;21.83;;;20.03;;
15198;SDS011;7700;48.654;9.070;2023-11-18T11:57:09;23.17;;;21.23;;
15198;SDS011;7700;48.654;9.070;2023-11-18T12:02:23;23.33;;;21.27;;
15198;SDS011;7700;48.654;9.070;2023-11-18T12:04:49;24.27;;;22.30;;
15198;SDS011;7700;48.654;9.070;2023-11-18T12:07:19;24.17;;;22.13;;
15198;SDS011;7700;48.654;9.070;2023-11-18T12:09:48;26.60;;;24.23;;
15198;SDS011;7700;48.654;9.070;2023-11-18T12:12:18;23.30;;;21.10;;
15198;SDS011;7700;48.654;9.070;2023-11-18T12:14:51;24.90;;;22.70;;
15198;SDS011;7700;48.654;9.070;2023-11-18T12:17:17;23.77;;;21.93;;
15198;SDS011;7700;48.654;9.070;2023-11-18T12:19:47;25.33;;;23.23;;
15198;SDS011;7700;48.654;9.070;2023-11-18T12:22:19;22.57;;;20.53;;
15198;SDS011;7700;48.654;9.070;2023-11-18T12:32:58;32.10;;;29.07;;
15198;SDS011;7700;48.654;9.070;2023-11-18T12:35:29;23.87;;;22.07;;
15198;SDS011;7700;48.654;9.070;2023-11-18T12:46:29;24.93;;;22.70;;
15198;SDS011;7700;48.654;9.070;2023-11-18T12:49:02;25.10;;;22.83;;
15198;SDS011;7700;48.654;9.070;2023-11-18T12:51:28;25.93;;;23.83;;
15198;SDS011;7700;48.654;9.070;2023-11-18T12:53:56;29.20;;;26.33;;
15198;SDS011;7700;48.654;9.070;2023-11-18T12:56:23;30.97;;;28.57;;
15198;SDS011;7700;48.654;9.070;2023-11-18T12:58:50;27.10;;;24.60;;
15198;SDS011;7700;48.654;9.070;2023-11-18T13:01:17;22.97;;;20.87;;
15198;SDS011;7700;48.654;9.070;2023-11-18T13:03:44;25.60;;;23.37;;
15198;SDS011;7700;48.654;9.070;2023-11-18T13:06:10;24.57;;;22.53;;
15198;SDS011;7700;48.654;9.070;2023-11-18T13:08:40;22.23;;;20.13;;
15198;SDS011;7700;48.654;9.070;2023-11-18T13:11:06;26.77;;;24.77;;
15198;SDS011;7700;48.654;9.070;2023-11-18T13:13:37;23.73;;;21.53;;
15198;SDS011;7700;48.654;9.070;2023-11-18T13:16:04;24.90;;;22.70;;
15198;SDS011;7700;48.654;9.070;2023-11-18T13:18:41;26.47;;;24.27;;
15198;SDS011;7700;48.654;9.070;2023-11-18T13:21:08;22.50;;;20.63;;
15198;SDS011;7700;48.654;9.070;2023-11-18T13:23:36;22.80;;;20.47;;
15198;SDS011;7700;48.654;9.070;2023-11-18T13:26:01;26.83;;;24.43;;
15198;SDS011;7700;48.654;9.070;2023-11-18T13:28:30;29.30;;;27.27;;
15198;SDS011;7700;48.654;9.070;2023-11-18T13:30:57;23.63;;;21.63;;
15198;SDS011;7700;48.654;9.070;2023-11-18T13:33:23;25.27;;;23.27;;
15198;SDS011;7700;48.654;9.070;2023-11-18T13:35:49;27.97;;;25.63;;
15198;SDS011;7700;48.654;9.070;2023-11-18T13:38:15;23.83;;;21.73;;
15198;SDS011;7700;48.654;9.070;2023-11-18T13:40:47;22.97;;;20.87;;
15198;SDS011;7700;48.654;9.070;2023-11-18T13:43:13;26.63;;;24.43;;
15198;SDS011;7700;48.654;9.070;2023-11-18T13:45:40;22.87;;;20.87;;
15198;SDS011;7700;48.654;9.070;2023-11-18T13:48:07;22.10;;;20.10;;
15198;SDS011;7700;48.654;9.070;2023-11-18T13:50:34;26.80;;;24.67;;
15198;SDS011;7700;48.654;9.070;2023-11-18T13:53:03;21.30;;;19.50;;
15198;SDS011;7700;48.654;9.070;2023-11-18T13:55:30;27.93;;;25.73;;
15198;SDS011;7700;48.654;9.070;2023-11-18T13:57:57;26.77;;;24.87;;
15198;SDS011;7700;48.654;9.070;2023-11-18T14:00:26;26.13;;;23.40;;
15198;SDS011;7700;48.654;9.070;2023-11-18T14:02:56;24.93;;;22.80;;
15198;SDS011;7700;48.654;9.070;2023-11-18T14:05:22;36.27;;;33.70;;
15198;SDS011;7700;48.654;9.070;2023-11-18T14:07:49;23.20;;;21.20;;
15198;SDS011;7700;48.654;9.070;2023-11-18T14:10:15;28.67;;;26.43;;
15198;SDS011;7700;48.654;9.070;2023-11-18T14:12:59;26.07;;;23.77;;
15198;SDS011;7700;48.654;9.070;2023-11-18T14:15:26;28.27;;;26.37;;
15198;SDS011;7700;48.654;9.070;2023-11-18T14:17:52;23.90;;;22.10;;
15198;SDS011;7700;48.654;9.070;2023-11-18T14:20:18;26.90;;;24.70;;
15198;SDS011;7700;48.654;9.070;2023-11-18T14:22:47;37.40;;;34.10;;
15198;SDS011;7700;48.654;9.070;2023-11-18T14:25:13;30.53;;;28.10;;
15198;SDS011;7700;48.654;9.070;2023-11-18T14:27:39;40.63;;;38.20;;
15198;SDS011;7700;48.654;9.070;2023-11-18T14:30:06;37.20;;;33.67;;
15198;SDS011;7700;48.654;9.070;2023-11-18T14:32:34;33.07;;;30.13;;
15198;SDS011;7700;48.654;9.070;2023-11-18T14:35:00;30.07;;;27.87;;
15198;SDS011;7700;48.654;9.070;2023-11-18T14:37:26;31.17;;;29.07;;
15198;SDS011;7700;48.654;9.070;2023-11-18T14:39:52;31.47;;;29.13;;
15198;SDS011;7700;48.654;9.070;2023-11-18T14:42:19;32.00;;;29.57;;
15198;SDS011;7700;48.654;9.070;2023-11-18T14:44:48;36.40;;;33.97;;
15198;SDS011;7700;48.654;9.070;2023-11-18T14:47:14;25.97;;;24.07;;
15198;SDS011;7700;48.654;9.070;2023-11-18T14:49:41;29.43;;;27.43;;
15198;SDS011;7700;48.654;9.070;2023-11-18T14:52:07;28.60;;;26.60;;
15198;SDS011;7700;48.654;9.070;2023-11-18T14:54:33;29.97;;;27.77;;
15198;SDS011;7700;48.654;9.070;2023-11-18T14:57:01;26.77;;;24.87;;
15198;SDS011;7700;48.654;9.070;2023-11-18T14:59:28;27.77;;;25.87;;
15198;SDS011;7700;48.654;9.070;2023-11-18T15:01:53;27.90;;;26.00;;
15198;SDS011;7700;48.654;9.070;2023-11-18T15:04:22;25.47;;;23.27;;
15198;SDS011;7700;48.654;9.070;2023-11-18T15:06:49;30.23;;;28.03;;
15198;SDS011;7700;48.654;9.070;2023-11-18T15:09:17;26.97;;;25.07;;
15198;SDS011;7700;48.654;9.070;2023-11-18T15:11:43;25.57;;;23.77;;
15198;SDS011;7700;48.654;9.070;2023-11-18T15:14:10;28.10;;;26.23;;
15198;SDS011;7700;48.654;9.070;2023-11-18T15:16:36;24.87;;;23.27;;
15198;SDS011;7700;48.654;9.070;2023-11-18T15:19:03;28.67;;;26.67;;
15198;SDS011;7700;48.654;9.070;2023-11-18T15:21:29;27.80;;;25.70;;